sensor_id;sensor_type;location;lat;lon;timestamp;P1;durP1;ratioP1;P2;durP2;ratioP2
37231;SDS011;23125;48.156;15.954;2023-06-22T00:01:58;5.68;;;3.10;;
37231;SDS011;23125;48.156;15.954;2023-06-22T00:04:24;5.35;;;3.60;;
37231;SDS011;23125;48.156;15.954;2023-06-22T00:06:52;8.65;;;4.15;;
37231;SDS011;23125;48.156;15.954;2023-06-22T00:09:17;6.53;;;3.97;;
37231;SDS011;23125;48.156;15.954;2023-06-22T00:11:43;7.20;;;4.25;;
37231;SDS011;23125;48.156;15.954;2023-06-22T00:14:09;6.05;;;3.47;;
37231;SDS011;23125;48.156;15.954;2023-06-22T00:16:35;5.00;;;3.58;;
37231;SDS011;23125;48.156;15.954;2023-06-22T00:19:01;6.10;;;3.60;;
37231;SDS011;23125;48.156;15.954;2023-06-22T00:21:27;6.80;;;3.85;;
37231;SDS011;23125;48.156;15.954;2023-06-22T00:23:53;6.95;;;3.60;;
37231;SDS011;23125;48.156;15.954;2023-06-22T00:26:19;5.82;;;3.55;;
37231;SDS011;23125;48.156;15.954;2023-06-22T00:28:46;6.28;;;3.47;;
37231;SDS011;23125;48.156;15.954;2023-06-22T00:31:12;9.43;;;4.07;;
37231;SDS011;23125;48.156;15.954;2023-06-22T00:33:38;6.20;;;3.67;;
37231;SDS011;23125;48.156;15.954;2023-06-22T00:36:04;6.05;;;3.17;;
37231;SDS011;23125;48.156;15.954;2023-06-22T00:38:33;5.45;;;3.25;;
37231;SDS011;23125;48.156;15.954;2023-06-22T00:40:59;5.93;;;4.30;;
37231;SDS011;23125;48.156;15.954;2023-06-22T00:43:25;7.28;;;3.45;;
37231;SDS011;23125;48.156;15.954;2023-06-22T00:45:51;7.95;;;4.15;;
37231;SDS011;23125;48.156;15.954;2023-06-22T00:48:17;4.47;;;2.90;;
37231;SDS011;23125;48.156;15.954;2023-06-22T00:50:43;6.32;;;3.25;;
37231;SDS011;23125;48.156;15.954;2023-06-22T00:53:09;7.03;;;4.15;;
37231;SDS011;23125;48.156;15.954;2023-06-22T00:55:42;6.53;;;3.97;;
37231;SDS011;23125;48.156;15.954;2023-06-22T00:58:11;7.88;;;3.67;;
37231;SDS011;23125;48.156;15.954;2023-06-22T01:00:37;9.55;;;3.65;;
37231;SDS011;23125;48.156;15.954;2023-06-22T01:03:04;7.88;;;3.65;;
37231;SDS011;23125;48.156;15.954;2023-06-22T01:05:34;11.30;;;3.85;;
37231;SDS011;23125;48.156;15.954;2023-06-22T01:10:52;7.20;;;3.80;;
37231;SDS011;23125;48.156;15.954;2023-06-22T01:16:02;8.90;;;4.65;;
37231;SDS011;23125;48.156;15.954;2023-06-22T01:18:33;9.02;;;3.55;;
37231;SDS011;23125;48.156;15.954;2023-06-22T01:21:02;6.90;;;3.50;;
37231;SDS011;23125;48.156;15.954;2023-06-22T01:23:51;7.93;;;3.53;;
37231;SDS011;23125;48.156;15.954;2023-06-22T01:26:38;5.45;;;3.28;;
37231;SDS011;23125;48.156;15.954;2023-06-22T01:29:12;8.57;;;3.70;;
37231;SDS011;23125;48.156;15.954;2023-06-22T01:31:40;8.52;;;3.85;;
37231;SDS011;23125;48.156;15.954;2023-06-22T01:34:09;10.93;;;4.05;;
37231;SDS011;23125;48.156;15.954;2023-06-22T01:36:36;8.15;;;4.07;;
37231;SDS011;23125;48.156;15.954;2023-06-22T01:39:04;6.25;;;3.85;;
37231;SDS011;23125;48.156;15.954;2023-06-22T01:41:34;6.65;;;3.40;;
37231;SDS011;23125;48.156;15.954;2023-06-22T01:44:02;5.95;;;4.05;;
37231;SDS011;23125;48.156;15.954;2023-06-22T01:46:35;6.45;;;3.45;;
37231;SDS011;23125;48.156;15.954;2023-06-22T01:49:02;6.63;;;3.30;;
37231;SDS011;23125;48.156;15.954;2023-06-22T01:51:29;10.23;;;3.70;;
37231;SDS011;23125;48.156;15.954;2023-06-22T01:53:56;6.47;;;3.60;;
37231;SDS011;23125;48.156;15.954;2023-06-22T01:56:21;8.40;;;4.00;;
37231;SDS011;23125;48.156;15.954;2023-06-22T01:58:55;6.82;;;3.78;;
37231;SDS011;23125;48.156;15.954;2023-06-22T02:01:27;8.07;;;3.55;;
37231;SDS011;23125;48.156;15.954;2023-06-22T02:04:03;8.35;;;3.50;;
37231;SDS011;23125;48.156;15.954;2023-06-22T02:06:37;7.78;;;4.13;;
37231;SDS011;23125;48.156;15.954;2023-06-22T02:09:08;7.15;;;3.33;;
37231;SDS011;23125;48.156;15.954;2023-06-22T02:11:38;8.27;;;3.88;;
37231;SDS011;23125;48.156;15.954;2023-06-22T02:14:07;9.32;;;3.78;;
37231;SDS011;23125;48.156;15.954;2023-06-22T02:16:34;8.00;;;3.70;;
37231;SDS011;23125;48.156;15.954;2023-06-22T02:19:03;7.82;;;3.97;;
37231;SDS011;23125;48.156;15.954;2023-06-22T02:21:29;7.30;;;3.88;;
37231;SDS011;23125;48.156;15.954;2023-06-22T02:23:56;7.10;;;3.92;;
37231;SDS011;23125;48.156;15.954;2023-06-22T02:26:22;7.88;;;3.45;;
37231;SDS011;23125;48.156;15.954;2023-06-22T02:28:50;10.45;;;4.30;;
37231;SDS011;23125;48.156;15.954;2023-06-22T02:31:16;6.28;;;3.88;;
37231;SDS011;23125;48.156;15.954;2023-06-22T02:33:43;7.60;;;4.00;;
37231;SDS011;23125;48.156;15.954;2023-06-22T02:36:10;6.90;;;4.10;;
37231;SDS011;23125;48.156;15.954;2023-06-22T02:38:38;7.38;;;4.32;;
37231;SDS011;23125;48.156;15.954;2023-06-22T02:41:15;6.63;;;4.18;;
37231;SDS011;23125;48.156;15.954;2023-06-22T02:43:47;8.45;;;3.78;;
37231;SDS011;23125;48.156;15.954;2023-06-22T02:46:13;9.67;;;4.50;;
37231;SDS011;23125;48.156;15.954;2023-06-22T02:48:39;6.63;;;3.72;;
37231;SDS011;23125;48.156;15.954;2023-06-22T02:51:06;7.60;;;3.70;;
37231;SDS011;23125;48.156;15.954;2023-06-22T02:53:32;7.78;;;4.22;;
37231;SDS011;23125;48.156;15.954;2023-06-22T02:55:58;6.07;;;3.38;;
37231;SDS011;23125;48.156;15.954;2023-06-22T02:58:26;9.10;;;4.00;;
37231;SDS011;23125;48.156;15.954;2023-06-22T03:00:52;8.73;;;3.80;;
37231;SDS011;23125;48.156;15.954;2023-06-22T03:03:19;8.70;;;4.47;;
37231;SDS011;23125;48.156;15.954;2023-06-22T03:05:44;6.20;;;4.05;;
37231;SDS011;23125;48.156;15.954;2023-06-22T03:08:10;6.45;;;3.72;;
37231;SDS011;23125;48.156;15.954;2023-06-22T03:10:36;7.70;;;4.38;;
37231;SDS011;23125;48.156;15.954;2023-06-22T03:13:02;7.18;;;3.83;;
37231;SDS011;23125;48.156;15.954;2023-06-22T03:15:30;9.05;;;4.18;;
37231;SDS011;23125;48.156;15.954;2023-06-22T03:17:56;7.22;;;3.35;;
37231;SDS011;23125;48.156;15.954;2023-06-22T03:20:22;7.05;;;3.83;;
37231;SDS011;23125;48.156;15.954;2023-06-22T03:22:48;9.20;;;3.97;;
37231;SDS011;23125;48.156;15.954;2023-06-22T03:25:14;5.47;;;3.28;;
37231;SDS011;23125;48.156;15.954;2023-06-22T03:27:40;6.97;;;3.88;;
37231;SDS011;23125;48.156;15.954;2023-06-22T03:30:07;6.95;;;4.13;;
37231;SDS011;23125;48.156;15.954;2023-06-22T03:32:35;5.80;;;3.88;;
37231;SDS011;23125;48.156;15.954;2023-06-22T03:35:01;6.40;;;3.83;;
37231;SDS011;23125;48.156;15.954;2023-06-22T03:37:27;9.00;;;4.18;;
37231;SDS011;23125;48.156;15.954;2023-06-22T03:39:54;6.45;;;3.88;;
37231;SDS011;23125;48.156;15.954;2023-06-22T03:42:20;8.70;;;4.30;;
37231;SDS011;23125;48.156;15.954;2023-06-22T03:44:47;6.72;;;3.90;;
37231;SDS011;23125;48.156;15.954;2023-06-22T03:47:13;9.52;;;4.47;;
37231;SDS011;23125;48.156;15.954;2023-06-22T03:49:39;8.57;;;3.67;;
37231;SDS011;23125;48.156;15.954;2023-06-22T03:52:04;6.78;;;4.00;;
37231;SDS011;23125;48.156;15.954;2023-06-22T03:54:31;6.72;;;3.53;;
37231;SDS011;23125;48.156;15.954;2023-06-22T03:56:57;6.80;;;3.97;;
37231;SDS011;23125;48.156;15.954;2023-06-22T03:59:24;8.57;;;3.97;;
37231;SDS011;23125;48.156;15.954;2023-06-22T04:01:50;9.52;;;3.88;;
37231;SDS011;23125;48.156;15.954;2023-06-22T04:04:19;5.72;;;3.97;;
37231;SDS011;23125;48.156;15.954;2023-06-22T04:06:45;9.40;;;3.65;;
37231;SDS011;23125;48.156;15.954;2023-06-22T04:09:11;7.15;;;3.92;;
37231;SDS011;23125;48.156;15.954;2023-06-22T04:11:38;9.80;;;4.00;;
37231;SDS011;23125;48.156;15.954;2023-06-22T04:14:03;6.43;;;3.83;;
37231;SDS011;23125;48.156;15.954;2023-06-22T04:16:29;8.13;;;3.60;;
37231;SDS011;23125;48.156;15.954;2023-06-22T04:18:55;6.47;;;4.13;;
37231;SDS011;23125;48.156;15.954;2023-06-22T04:21:21;8.23;;;4.72;;
37231;SDS011;23125;48.156;15.954;2023-06-22T04:23:47;6.95;;;4.35;;
37231;SDS011;23125;48.156;15.954;2023-06-22T04:26:13;8.35;;;3.72;;
37231;SDS011;23125;48.156;15.954;2023-06-22T04:28:40;6.55;;;3.50;;
37231;SDS011;23125;48.156;15.954;2023-06-22T04:31:06;8.43;;;3.67;;
37231;SDS011;23125;48.156;15.954;2023-06-22T04:33:32;6.60;;;3.67;;
37231;SDS011;23125;48.156;15.954;2023-06-22T04:35:58;9.63;;;4.70;;
37231;SDS011;23125;48.156;15.954;2023-06-22T04:38:27;12.88;;;4.63;;
37231;SDS011;23125;48.156;15.954;2023-06-22T04:40:53;7.13;;;3.95;;
37231;SDS011;23125;48.156;15.954;2023-06-22T04:43:19;9.95;;;3.65;;
37231;SDS011;23125;48.156;15.954;2023-06-22T04:45:45;8.20;;;3.78;;
37231;SDS011;23125;48.156;15.954;2023-06-22T04:48:11;7.40;;;4.10;;
37231;SDS011;23125;48.156;15.954;2023-06-22T04:50:41;9.23;;;3.88;;
37231;SDS011;23125;48.156;15.954;2023-06-22T04:53:07;10.48;;;4.35;;
37231;SDS011;23125;48.156;15.954;2023-06-22T04:55:35;9.35;;;4.07;;
37231;SDS011;23125;48.156;15.954;2023-06-22T04:58:03;7.25;;;3.80;;
37231;SDS011;23125;48.156;15.954;2023-06-22T05:00:30;9.07;;;4.00;;
37231;SDS011;23125;48.156;15.954;2023-06-22T05:02:56;7.63;;;3.70;;
37231;SDS011;23125;48.156;15.954;2023-06-22T05:07:51;8.65;;;3.70;;
37231;SDS011;23125;48.156;15.954;2023-06-22T05:10:18;9.23;;;4.30;;
37231;SDS011;23125;48.156;15.954;2023-06-22T05:12:45;7.70;;;3.83;;
37231;SDS011;23125;48.156;15.954;2023-06-22T05:15:12;7.93;;;3.95;;
37231;SDS011;23125;48.156;15.954;2023-06-22T05:17:38;5.78;;;3.55;;
37231;SDS011;23125;48.156;15.954;2023-06-22T05:20:11;6.35;;;3.60;;
37231;SDS011;23125;48.156;15.954;2023-06-22T05:22:40;6.95;;;3.17;;
37231;SDS011;23125;48.156;15.954;2023-06-22T05:25:09;10.50;;;4.35;;
37231;SDS011;23125;48.156;15.954;2023-06-22T05:27:36;6.38;;;3.42;;
37231;SDS011;23125;48.156;15.954;2023-06-22T05:30:07;8.43;;;3.83;;
37231;SDS011;23125;48.156;15.954;2023-06-22T05:32:35;6.93;;;3.47;;
37231;SDS011;23125;48.156;15.954;2023-06-22T05:35:02;8.65;;;3.53;;
37231;SDS011;23125;48.156;15.954;2023-06-22T05:37:29;9.35;;;4.40;;
37231;SDS011;23125;48.156;15.954;2023-06-22T05:39:55;8.50;;;3.60;;
37231;SDS011;23125;48.156;15.954;2023-06-22T05:42:22;8.23;;;3.90;;
37231;SDS011;23125;48.156;15.954;2023-06-22T05:44:50;4.85;;;3.42;;
37231;SDS011;23125;48.156;15.954;2023-06-22T05:47:18;6.80;;;3.72;;
37231;SDS011;23125;48.156;15.954;2023-06-22T05:49:44;6.25;;;3.72;;
37231;SDS011;23125;48.156;15.954;2023-06-22T05:52:10;5.55;;;3.88;;
37231;SDS011;23125;48.156;15.954;2023-06-22T05:54:36;6.22;;;3.38;;
37231;SDS011;23125;48.156;15.954;2023-06-22T05:57:04;5.60;;;3.92;;
37231;SDS011;23125;48.156;15.954;2023-06-22T05:59:30;8.15;;;4.05;;
37231;SDS011;23125;48.156;15.954;2023-06-22T06:01:56;8.27;;;3.70;;
37231;SDS011;23125;48.156;15.954;2023-06-22T06:04:21;7.18;;;3.53;;
37231;SDS011;23125;48.156;15.954;2023-06-22T06:06:47;8.45;;;3.63;;
37231;SDS011;23125;48.156;15.954;2023-06-22T06:09:14;7.40;;;3.60;;
37231;SDS011;23125;48.156;15.954;2023-06-22T06:11:40;5.43;;;3.50;;
37231;SDS011;23125;48.156;15.954;2023-06-22T06:14:05;8.93;;;3.80;;
37231;SDS011;23125;48.156;15.954;2023-06-22T06:16:31;8.20;;;3.45;;
37231;SDS011;23125;48.156;15.954;2023-06-22T06:18:57;7.20;;;3.90;;
37231;SDS011;23125;48.156;15.954;2023-06-22T06:21:23;6.60;;;3.05;;
37231;SDS011;23125;48.156;15.954;2023-06-22T06:23:49;5.95;;;3.92;;
37231;SDS011;23125;48.156;15.954;2023-06-22T06:26:15;6.43;;;3.22;;
37231;SDS011;23125;48.156;15.954;2023-06-22T06:28:53;6.15;;;3.72;;
37231;SDS011;23125;48.156;15.954;2023-06-22T06:31:20;6.32;;;3.28;;
37231;SDS011;23125;48.156;15.954;2023-06-22T06:33:46;7.25;;;4.00;;
37231;SDS011;23125;48.156;15.954;2023-06-22T06:36:11;7.72;;;3.80;;
37231;SDS011;23125;48.156;15.954;2023-06-22T06:38:37;7.30;;;3.85;;
37231;SDS011;23125;48.156;15.954;2023-06-22T06:41:03;6.20;;;3.25;;
37231;SDS011;23125;48.156;15.954;2023-06-22T06:43:29;8.35;;;4.45;;
37231;SDS011;23125;48.156;15.954;2023-06-22T06:45:55;4.88;;;3.65;;
37231;SDS011;23125;48.156;15.954;2023-06-22T06:48:21;5.70;;;3.72;;
37231;SDS011;23125;48.156;15.954;2023-06-22T06:50:46;6.68;;;3.50;;
37231;SDS011;23125;48.156;15.954;2023-06-22T06:53:12;4.68;;;3.53;;
37231;SDS011;23125;48.156;15.954;2023-06-22T06:55:38;5.90;;;3.72;;
37231;SDS011;23125;48.156;15.954;2023-06-22T06:58:04;9.57;;;3.63;;
37231;SDS011;23125;48.156;15.954;2023-06-22T07:00:33;6.30;;;3.63;;
37231;SDS011;23125;48.156;15.954;2023-06-22T07:02:58;6.82;;;3.20;;
37231;SDS011;23125;48.156;15.954;2023-06-22T07:05:24;6.63;;;3.75;;
37231;SDS011;23125;48.156;15.954;2023-06-22T07:07:50;8.35;;;3.30;;
37231;SDS011;23125;48.156;15.954;2023-06-22T07:10:16;5.03;;;3.42;;
37231;SDS011;23125;48.156;15.954;2023-06-22T07:12:42;7.28;;;4.32;;
37231;SDS011;23125;48.156;15.954;2023-06-22T07:15:08;7.80;;;3.60;;
37231;SDS011;23125;48.156;15.954;2023-06-22T07:17:37;4.78;;;3.60;;
37231;SDS011;23125;48.156;15.954;2023-06-22T07:20:05;8.15;;;3.63;;
37231;SDS011;23125;48.156;15.954;2023-06-22T07:22:36;6.55;;;3.47;;
37231;SDS011;23125;48.156;15.954;2023-06-22T07:25:02;6.32;;;3.50;;
37231;SDS011;23125;48.156;15.954;2023-06-22T07:27:42;5.68;;;3.47;;
37231;SDS011;23125;48.156;15.954;2023-06-22T07:30:22;6.30;;;3.78;;
37231;SDS011;23125;48.156;15.954;2023-06-22T07:32:48;5.57;;;3.85;;
37231;SDS011;23125;48.156;15.954;2023-06-22T07:35:14;6.38;;;3.72;;
37231;SDS011;23125;48.156;15.954;2023-06-22T07:37:42;5.68;;;4.22;;
37231;SDS011;23125;48.156;15.954;2023-06-22T07:40:08;7.32;;;4.40;;
37231;SDS011;23125;48.156;15.954;2023-06-22T07:42:34;8.55;;;4.40;;
37231;SDS011;23125;48.156;15.954;2023-06-22T07:45:01;6.47;;;3.97;;
37231;SDS011;23125;48.156;15.954;2023-06-22T07:47:33;6.32;;;3.17;;
37231;SDS011;23125;48.156;15.954;2023-06-22T07:50:00;6.88;;;3.25;;
37231;SDS011;23125;48.156;15.954;2023-06-22T07:52:28;5.75;;;3.42;;
37231;SDS011;23125;48.156;15.954;2023-06-22T07:54:54;7.50;;;3.40;;
37231;SDS011;23125;48.156;15.954;2023-06-22T07:57:20;11.15;;;6.90;;
37231;SDS011;23125;48.156;15.954;2023-06-22T07:59:46;4.18;;;3.13;;
37231;SDS011;23125;48.156;15.954;2023-06-22T08:02:12;6.20;;;3.60;;
37231;SDS011;23125;48.156;15.954;2023-06-22T08:04:38;6.82;;;3.72;;
37231;SDS011;23125;48.156;15.954;2023-06-22T08:07:06;7.53;;;3.80;;
37231;SDS011;23125;48.156;15.954;2023-06-22T08:09:32;6.15;;;3.80;;
37231;SDS011;23125;48.156;15.954;2023-06-22T08:11:59;5.43;;;3.67;;
37231;SDS011;23125;48.156;15.954;2023-06-22T08:14:25;5.88;;;3.50;;
37231;SDS011;23125;48.156;15.954;2023-06-22T08:16:52;6.33;;;3.83;;
37231;SDS011;23125;48.156;15.954;2023-06-22T08:19:18;5.22;;;2.88;;
37231;SDS011;23125;48.156;15.954;2023-06-22T08:21:44;6.20;;;3.42;;
37231;SDS011;23125;48.156;15.954;2023-06-22T08:24:10;7.20;;;3.40;;
37231;SDS011;23125;48.156;15.954;2023-06-22T08:26:36;5.35;;;3.20;;
37231;SDS011;23125;48.156;15.954;2023-06-22T08:29:05;4.50;;;2.70;;
37231;SDS011;23125;48.156;15.954;2023-06-22T08:31:31;5.97;;;3.40;;
37231;SDS011;23125;48.156;15.954;2023-06-22T08:33:59;7.13;;;3.42;;
37231;SDS011;23125;48.156;15.954;2023-06-22T08:36:25;4.38;;;3.50;;
37231;SDS011;23125;48.156;15.954;2023-06-22T08:38:54;5.40;;;3.55;;
37231;SDS011;23125;48.156;15.954;2023-06-22T08:41:26;7.35;;;3.42;;
37231;SDS011;23125;48.156;15.954;2023-06-22T08:43:53;11.50;;;4.88;;
37231;SDS011;23125;48.156;15.954;2023-06-22T08:46:19;7.22;;;3.80;;
37231;SDS011;23125;48.156;15.954;2023-06-22T08:48:48;5.88;;;3.08;;
37231;SDS011;23125;48.156;15.954;2023-06-22T08:51:16;5.97;;;3.60;;
37231;SDS011;23125;48.156;15.954;2023-06-22T08:53:42;4.47;;;3.05;;
37231;SDS011;23125;48.156;15.954;2023-06-22T08:56:10;7.47;;;4.07;;
37231;SDS011;23125;48.156;15.954;2023-06-22T08:58:36;5.80;;;3.70;;
37231;SDS011;23125;48.156;15.954;2023-06-22T09:01:02;6.47;;;3.90;;
37231;SDS011;23125;48.156;15.954;2023-06-22T09:03:27;6.53;;;3.88;;
37231;SDS011;23125;48.156;15.954;2023-06-22T09:05:53;4.75;;;4.22;;
37231;SDS011;23125;48.156;15.954;2023-06-22T09:08:19;5.88;;;3.95;;
37231;SDS011;23125;48.156;15.954;2023-06-22T09:10:45;6.85;;;4.15;;
37231;SDS011;23125;48.156;15.954;2023-06-22T09:13:11;7.60;;;4.75;;
37231;SDS011;23125;48.156;15.954;2023-06-22T09:15:37;7.82;;;4.57;;
37231;SDS011;23125;48.156;15.954;2023-06-22T09:18:03;6.85;;;4.40;;
37231;SDS011;23125;48.156;15.954;2023-06-22T09:20:29;10.27;;;4.75;;
37231;SDS011;23125;48.156;15.954;2023-06-22T09:22:55;9.82;;;5.43;;
37231;SDS011;23125;48.156;15.954;2023-06-22T09:25:21;6.25;;;4.30;;
37231;SDS011;23125;48.156;15.954;2023-06-22T09:27:47;7.03;;;5.05;;
37231;SDS011;23125;48.156;15.954;2023-06-22T09:30:13;8.77;;;5.45;;
37231;SDS011;23125;48.156;15.954;2023-06-22T09:32:39;10.95;;;5.03;;
37231;SDS011;23125;48.156;15.954;2023-06-22T09:35:05;9.13;;;5.90;;
37231;SDS011;23125;48.156;15.954;2023-06-22T09:37:33;11.48;;;6.25;;
37231;SDS011;23125;48.156;15.954;2023-06-22T09:39:59;8.63;;;5.82;;
37231;SDS011;23125;48.156;15.954;2023-06-22T09:42:25;6.38;;;5.40;;
37231;SDS011;23125;48.156;15.954;2023-06-22T09:44:51;10.75;;;6.38;;
37231;SDS011;23125;48.156;15.954;2023-06-22T09:47:17;7.20;;;6.43;;
37231;SDS011;23125;48.156;15.954;2023-06-22T09:49:43;9.27;;;6.32;;
37231;SDS011;23125;48.156;15.954;2023-06-22T09:52:08;10.20;;;6.22;;
37231;SDS011;23125;48.156;15.954;2023-06-22T09:54:36;8.90;;;6.70;;
37231;SDS011;23125;48.156;15.954;2023-06-22T09:57:02;10.68;;;6.93;;
37231;SDS011;23125;48.156;15.954;2023-06-22T09:59:28;8.82;;;6.70;;
37231;SDS011;23125;48.156;15.954;2023-06-22T10:01:54;8.57;;;6.40;;
37231;SDS011;23125;48.156;15.954;2023-06-22T10:04:20;9.73;;;6.50;;
37231;SDS011;23125;48.156;15.954;2023-06-22T10:06:45;8.90;;;6.68;;
37231;SDS011;23125;48.156;15.954;2023-06-22T10:09:11;8.85;;;6.63;;
37231;SDS011;23125;48.156;15.954;2023-06-22T10:11:37;9.25;;;6.30;;
37231;SDS011;23125;48.156;15.954;2023-06-22T10:14:03;9.80;;;6.68;;
37231;SDS011;23125;48.156;15.954;2023-06-22T10:16:32;10.52;;;6.35;;
37231;SDS011;23125;48.156;15.954;2023-06-22T10:18:59;7.43;;;5.68;;
37231;SDS011;23125;48.156;15.954;2023-06-22T10:21:24;9.88;;;5.95;;
37231;SDS011;23125;48.156;15.954;2023-06-22T10:23:52;13.50;;;6.40;;
37231;SDS011;23125;48.156;15.954;2023-06-22T10:26:18;10.18;;;6.30;;
37231;SDS011;23125;48.156;15.954;2023-06-22T10:28:44;10.38;;;6.22;;
37231;SDS011;23125;48.156;15.954;2023-06-22T10:31:10;9.68;;;6.10;;
37231;SDS011;23125;48.156;15.954;2023-06-22T10:33:36;10.05;;;6.50;;
37231;SDS011;23125;48.156;15.954;2023-06-22T10:36:01;10.95;;;6.40;;
37231;SDS011;23125;48.156;15.954;2023-06-22T10:38:27;9.55;;;6.22;;
37231;SDS011;23125;48.156;15.954;2023-06-22T10:40:53;7.70;;;5.53;;
37231;SDS011;23125;48.156;15.954;2023-06-22T10:43:19;7.72;;;5.40;;
37231;SDS011;23125;48.156;15.954;2023-06-22T10:45:45;9.50;;;5.80;;
37231;SDS011;23125;48.156;15.954;2023-06-22T10:48:11;9.90;;;5.10;;
37231;SDS011;23125;48.156;15.954;2023-06-22T10:50:36;10.38;;;5.50;;
37231;SDS011;23125;48.156;15.954;2023-06-22T10:53:04;8.82;;;5.80;;
37231;SDS011;23125;48.156;15.954;2023-06-22T10:55:29;9.27;;;5.53;;
37231;SDS011;23125;48.156;15.954;2023-06-22T10:57:55;8.57;;;5.10;;
37231;SDS011;23125;48.156;15.954;2023-06-22T11:00:21;9.30;;;5.82;;
37231;SDS011;23125;48.156;15.954;2023-06-22T11:02:47;11.27;;;4.97;;
37231;SDS011;23125;48.156;15.954;2023-06-22T11:05:13;7.57;;;4.70;;
37231;SDS011;23125;48.156;15.954;2023-06-22T11:07:42;8.02;;;4.80;;
37231;SDS011;23125;48.156;15.954;2023-06-22T11:10:09;7.90;;;4.90;;
37231;SDS011;23125;48.156;15.954;2023-06-22T11:12:35;8.70;;;4.72;;
37231;SDS011;23125;48.156;15.954;2023-06-22T11:15:01;5.93;;;4.30;;
37231;SDS011;23125;48.156;15.954;2023-06-22T11:17:27;8.68;;;4.38;;
37231;SDS011;23125;48.156;15.954;2023-06-22T11:19:53;8.07;;;4.22;;
37231;SDS011;23125;48.156;15.954;2023-06-22T11:22:18;4.90;;;3.85;;
37231;SDS011;23125;48.156;15.954;2023-06-22T11:24:44;6.65;;;4.18;;
37231;SDS011;23125;48.156;15.954;2023-06-22T11:27:10;9.18;;;5.15;;
37231;SDS011;23125;48.156;15.954;2023-06-22T11:29:36;9.50;;;4.70;;
37231;SDS011;23125;48.156;15.954;2023-06-22T11:32:03;7.32;;;4.68;;
37231;SDS011;23125;48.156;15.954;2023-06-22T11:34:30;12.50;;;5.07;;
37231;SDS011;23125;48.156;15.954;2023-06-22T11:36:56;8.85;;;4.47;;
37231;SDS011;23125;48.156;15.954;2023-06-22T11:39:22;7.97;;;4.57;;
37231;SDS011;23125;48.156;15.954;2023-06-22T11:41:48;8.10;;;4.43;;
37231;SDS011;23125;48.156;15.954;2023-06-22T11:44:14;7.38;;;4.65;;
37231;SDS011;23125;48.156;15.954;2023-06-22T11:46:39;9.38;;;4.60;;
37231;SDS011;23125;48.156;15.954;2023-06-22T11:49:05;8.25;;;4.68;;
37231;SDS011;23125;48.156;15.954;2023-06-22T11:51:31;5.57;;;3.85;;
37231;SDS011;23125;48.156;15.954;2023-06-22T11:53:57;7.07;;;4.65;;
37231;SDS011;23125;48.156;15.954;2023-06-22T11:56:24;10.20;;;4.90;;
37231;SDS011;23125;48.156;15.954;2023-06-22T11:58:49;7.13;;;4.35;;
37231;SDS011;23125;48.156;15.954;2023-06-22T12:01:15;7.80;;;4.47;;
37231;SDS011;23125;48.156;15.954;2023-06-22T12:03:41;10.30;;;4.93;;
37231;SDS011;23125;48.156;15.954;2023-06-22T12:06:09;8.07;;;4.43;;
37231;SDS011;23125;48.156;15.954;2023-06-22T12:08:35;12.55;;;4.35;;
37231;SDS011;23125;48.156;15.954;2023-06-22T12:11:01;11.27;;;4.70;;
37231;SDS011;23125;48.156;15.954;2023-06-22T12:13:27;10.95;;;4.68;;
37231;SDS011;23125;48.156;15.954;2023-06-22T12:15:52;7.72;;;4.15;;
37231;SDS011;23125;48.156;15.954;2023-06-22T12:18:18;9.13;;;4.63;;
37231;SDS011;23125;48.156;15.954;2023-06-22T12:20:46;7.38;;;4.63;;
37231;SDS011;23125;48.156;15.954;2023-06-22T12:23:12;10.50;;;4.45;;
37231;SDS011;23125;48.156;15.954;2023-06-22T12:25:39;9.82;;;4.60;;
37231;SDS011;23125;48.156;15.954;2023-06-22T12:28:05;12.00;;;4.82;;
37231;SDS011;23125;48.156;15.954;2023-06-22T12:30:34;8.90;;;4.85;;
37231;SDS011;23125;48.156;15.954;2023-06-22T12:33:00;8.38;;;4.82;;
37231;SDS011;23125;48.156;15.954;2023-06-22T12:35:26;8.50;;;4.57;;
37231;SDS011;23125;48.156;15.954;2023-06-22T12:37:52;9.98;;;4.78;;
37231;SDS011;23125;48.156;15.954;2023-06-22T12:40:18;6.95;;;4.72;;
37231;SDS011;23125;48.156;15.954;2023-06-22T12:42:44;7.40;;;4.95;;
37231;SDS011;23125;48.156;15.954;2023-06-22T12:45:11;7.22;;;4.95;;
37231;SDS011;23125;48.156;15.954;2023-06-22T12:47:37;7.43;;;4.78;;
37231;SDS011;23125;48.156;15.954;2023-06-22T12:50:03;8.05;;;5.20;;
37231;SDS011;23125;48.156;15.954;2023-06-22T12:52:30;9.30;;;4.95;;
37231;SDS011;23125;48.156;15.954;2023-06-22T12:54:58;8.60;;;4.72;;
37231;SDS011;23125;48.156;15.954;2023-06-22T12:57:24;11.35;;;4.70;;
37231;SDS011;23125;48.156;15.954;2023-06-22T12:59:50;10.07;;;4.68;;
37231;SDS011;23125;48.156;15.954;2023-06-22T13:02:16;5.95;;;4.80;;
37231;SDS011;23125;48.156;15.954;2023-06-22T13:04:42;9.02;;;4.85;;
37231;SDS011;23125;48.156;15.954;2023-06-22T13:07:08;9.88;;;5.40;;
37231;SDS011;23125;48.156;15.954;2023-06-22T13:09:35;8.35;;;5.40;;
37231;SDS011;23125;48.156;15.954;2023-06-22T13:12:02;10.10;;;5.25;;
37231;SDS011;23125;48.156;15.954;2023-06-22T13:14:28;7.97;;;4.47;;
37231;SDS011;23125;48.156;15.954;2023-06-22T13:16:54;6.78;;;5.15;;
37231;SDS011;23125;48.156;15.954;2023-06-22T13:19:19;8.10;;;4.93;;
37231;SDS011;23125;48.156;15.954;2023-06-22T13:21:45;8.38;;;4.82;;
37231;SDS011;23125;48.156;15.954;2023-06-22T13:24:11;7.93;;;5.13;;
37231;SDS011;23125;48.156;15.954;2023-06-22T13:26:37;8.07;;;5.50;;
37231;SDS011;23125;48.156;15.954;2023-06-22T13:29:03;8.30;;;5.10;;
37231;SDS011;23125;48.156;15.954;2023-06-22T13:31:29;7.40;;;5.15;;
37231;SDS011;23125;48.156;15.954;2023-06-22T13:33:55;7.20;;;5.25;;
37231;SDS011;23125;48.156;15.954;2023-06-22T13:36:21;10.23;;;5.72;;
37231;SDS011;23125;48.156;15.954;2023-06-22T13:38:48;10.68;;;5.78;;
37231;SDS011;23125;48.156;15.954;2023-06-22T13:41:14;12.57;;;6.15;;
37231;SDS011;23125;48.156;15.954;2023-06-22T13:43:40;10.00;;;6.00;;
37231;SDS011;23125;48.156;15.954;2023-06-22T13:46:06;8.88;;;5.95;;
37231;SDS011;23125;48.156;15.954;2023-06-22T13:48:32;6.88;;;5.45;;
37231;SDS011;23125;48.156;15.954;2023-06-22T13:50:58;10.02;;;5.47;;
37231;SDS011;23125;48.156;15.954;2023-06-22T13:53:24;9.75;;;5.65;;
37231;SDS011;23125;48.156;15.954;2023-06-22T13:55:51;9.52;;;5.55;;
37231;SDS011;23125;48.156;15.954;2023-06-22T13:58:17;9.68;;;5.47;;
37231;SDS011;23125;48.156;15.954;2023-06-22T14:00:45;10.80;;;5.57;;
37231;SDS011;23125;48.156;15.954;2023-06-22T14:03:11;9.68;;;5.85;;
37231;SDS011;23125;48.156;15.954;2023-06-22T14:05:36;7.63;;;5.68;;
37231;SDS011;23125;48.156;15.954;2023-06-22T14:08:02;9.95;;;6.28;;
37231;SDS011;23125;48.156;15.954;2023-06-22T14:10:28;8.07;;;6.07;;
37231;SDS011;23125;48.156;15.954;2023-06-22T14:12:54;9.02;;;5.57;;
37231;SDS011;23125;48.156;15.954;2023-06-22T14:15:20;10.10;;;6.72;;
37231;SDS011;23125;48.156;15.954;2023-06-22T14:17:45;6.78;;;5.50;;
37231;SDS011;23125;48.156;15.954;2023-06-22T14:20:11;9.73;;;6.20;;
37231;SDS011;23125;48.156;15.954;2023-06-22T14:22:37;11.30;;;6.40;;
37231;SDS011;23125;48.156;15.954;2023-06-22T14:25:04;10.25;;;6.30;;
37231;SDS011;23125;48.156;15.954;2023-06-22T14:27:31;7.32;;;5.88;;
37231;SDS011;23125;48.156;15.954;2023-06-22T14:29:56;9.73;;;6.40;;
37231;SDS011;23125;48.156;15.954;2023-06-22T14:32:22;11.27;;;6.05;;
37231;SDS011;23125;48.156;15.954;2023-06-22T14:34:49;9.35;;;5.78;;
37231;SDS011;23125;48.156;15.954;2023-06-22T14:37:15;10.98;;;6.28;;
37231;SDS011;23125;48.156;15.954;2023-06-22T14:39:41;8.35;;;6.25;;